createdAt,value
2023-01-13T00:03:31.837Z,2.47
2023-01-13T00:09:23.967Z,2.40
2023-01-13T00:15:16.999Z,2.55
2023-01-13T00:21:17.128Z,1.90
2023-01-13T00:27:09.943Z,2.15
2023-01-13T00:33:02.756Z,2.50
2023-01-13T00:38:55.147Z,2.33
2023-01-13T00:44:48.085Z,2.60
2023-01-13T00:50:41.312Z,2.13
2023-01-13T00:56:40.202Z,2.42
2023-01-13T01:02:32.928Z,1.85
2023-01-13T01:08:24.896Z,1.95
2023-01-13T01:14:17.007Z,2.67
2023-01-13T01:20:09.698Z,2.40
2023-01-13T01:26:12.036Z,2.70
2023-01-13T01:32:05.139Z,2.40
2023-01-13T01:37:58.226Z,2.38
2023-01-13T01:44:00.021Z,2.15
2023-01-13T01:49:53.572Z,2.05
2023-01-13T01:55:46.292Z,2.25
2023-01-13T02:01:41.959Z,1.80
2023-01-13T02:07:37.175Z,1.73
2023-01-13T02:13:31.285Z,1.92
2023-01-13T02:20:02.548Z,2.20
2023-01-13T02:25:57.795Z,1.77
2023-01-13T02:31:52.433Z,2.50
2023-01-13T02:37:45.480Z,1.88
2023-01-13T02:43:58.877Z,1.90
2023-01-13T02:49:57.829Z,1.90
2023-01-13T02:55:54.105Z,1.77
2023-01-13T03:01:48.073Z,1.85
2023-01-13T03:08:15.912Z,2.30
2023-01-13T03:14:27.403Z,2.08
2023-01-13T03:20:27.850Z,1.40
2023-01-13T03:26:35.081Z,1.42
2023-01-13T03:32:42.929Z,1.77
2023-01-13T03:38:58.813Z,1.40
2023-01-13T03:45:18.100Z,0.95
2023-01-13T03:51:16.523Z,1.50
2023-01-13T03:57:14.180Z,1.80
2023-01-13T04:03:23.579Z,1.67
2023-01-13T04:09:39.518Z,1.98
2023-01-13T04:15:39.517Z,1.50
2023-01-13T04:21:34.543Z,1.73
2023-01-13T04:27:28.147Z,1.60
2023-01-13T04:33:21.305Z,1.60
2023-01-13T04:39:13.613Z,1.40
2023-01-13T04:45:07.428Z,1.90
2023-01-13T04:50:59.193Z,1.60
2023-01-13T04:56:51.488Z,1.63
2023-01-13T05:02:43.808Z,1.58
2023-01-13T05:08:36.636Z,1.63
2023-01-13T05:14:48.367Z,1.42
2023-01-13T05:20:40.746Z,1.60
2023-01-13T05:26:34.632Z,1.58
2023-01-13T05:32:28.311Z,1.42
2023-01-13T05:38:21.040Z,1.70
2023-01-13T05:44:14.767Z,1.85
2023-01-13T05:50:08.481Z,1.10
2023-01-13T05:56:05.329Z,2.10
2023-01-13T06:01:57.204Z,2.15
2023-01-13T06:07:49.903Z,1.20
2023-01-13T06:13:43.285Z,1.40
2023-01-13T06:19:36.289Z,1.30
2023-01-13T06:25:28.963Z,1.40
2023-01-13T06:31:22.330Z,1.30
2023-01-13T06:37:20.152Z,0.80
2023-01-13T06:43:16.684Z,1.08
2023-01-13T06:49:10.996Z,1.08
2023-01-13T06:55:04.402Z,1.23
2023-01-13T07:06:53.119Z,1.15
2023-01-13T07:13:05.697Z,1.17
2023-01-13T07:19:00.120Z,1.20
2023-01-13T07:24:53.132Z,1.10
2023-01-13T07:30:45.957Z,1.52
2023-01-13T07:36:39.435Z,1.20
2023-01-13T07:42:50.865Z,1.27
2023-01-13T07:48:43.131Z,1.38
2023-01-13T07:54:40.914Z,2.00
2023-01-13T08:00:34.225Z,1.90
2023-01-13T08:06:27.501Z,1.73
2023-01-13T08:12:38.298Z,1.77
2023-01-13T08:18:33.332Z,1.55
2023-01-13T08:24:26.328Z,1.92
2023-01-13T08:30:26.221Z,1.60
2023-01-13T08:36:19.219Z,1.83
2023-01-13T08:42:12.334Z,1.65
2023-01-13T08:48:05.760Z,1.60
2023-01-13T08:54:00.205Z,1.70
2023-01-13T08:59:53.309Z,1.80
2023-01-13T09:05:47.262Z,1.60
2023-01-13T09:12:02.108Z,1.65
2023-01-13T09:17:55.582Z,1.77
2023-01-13T09:23:48.589Z,1.55
2023-01-13T09:29:42.029Z,1.80
2023-01-13T09:35:36.733Z,1.90
2023-01-13T09:41:49.968Z,2.08
2023-01-13T09:47:56.153Z,1.60
2023-01-13T09:54:00.869Z,1.92
2023-01-13T09:59:53.206Z,2.00
2023-01-13T10:05:56.666Z,2.00
2023-01-13T10:12:09.536Z,1.98
2023-01-13T10:18:12.449Z,2.03
2023-01-13T10:24:27.530Z,2.13
2023-01-13T10:30:24.338Z,2.13
2023-01-13T10:36:21.718Z,2.03
2023-01-13T10:42:22.340Z,2.08
2023-01-13T10:48:15.282Z,1.95
2023-01-13T10:54:13.268Z,2.57
2023-01-13T11:00:06.336Z,1.85
2023-01-13T11:06:00.556Z,1.88
2023-01-13T11:11:57.061Z,1.83
2023-01-13T11:18:01.649Z,1.75
2023-01-13T11:24:11.631Z,1.55
2023-01-13T11:30:21.008Z,1.80
2023-01-13T11:36:23.749Z,2.15
2023-01-13T11:42:25.611Z,1.90
2023-01-13T11:48:23.050Z,1.70
2023-01-13T11:54:47.424Z,1.65
2023-01-13T12:01:00.903Z,1.85
2023-01-13T12:07:22.987Z,2.00
2023-01-13T12:13:30.889Z,1.70
2023-01-13T12:19:30.250Z,2.40
2023-01-13T12:25:37.690Z,1.63
2023-01-13T12:31:32.254Z,2.13
2023-01-13T12:37:50.349Z,2.47
2023-01-13T12:44:07.298Z,2.42
2023-01-13T12:50:25.017Z,2.38
2023-01-13T12:56:40.299Z,2.15
2023-01-13T13:02:39.488Z,1.98
2023-01-13T13:08:56.514Z,2.30
2023-01-13T13:14:49.035Z,2.30
2023-01-13T13:21:09.025Z,2.65
2023-01-13T13:28:06.112Z,1.95
2023-01-13T13:34:17.649Z,1.98
2023-01-13T13:40:30.414Z,2.55
2023-01-13T13:46:47.569Z,2.72
2023-01-13T13:53:03.017Z,3.45
2023-01-13T13:58:56.648Z,3.78
2023-01-13T14:04:51.261Z,3.92
2023-01-13T14:10:46.545Z,3.92
2023-01-13T14:16:40.767Z,3.33
2023-01-13T14:22:33.331Z,2.92
2023-01-13T14:28:32.642Z,2.80
2023-01-13T14:34:31.720Z,3.17
2023-01-13T14:40:37.281Z,3.53
2023-01-13T14:46:43.347Z,3.70
2023-01-13T14:52:58.367Z,4.45
2023-01-13T14:58:51.864Z,4.45
2023-01-13T15:10:55.675Z,5.15
2023-01-13T15:16:48.644Z,8.25
2023-01-13T15:22:42.547Z,7.15
2023-01-13T15:28:34.985Z,5.73
2023-01-13T15:34:27.584Z,6.35
2023-01-13T15:40:31.131Z,10.38
2023-01-13T15:46:43.584Z,9.53
2023-01-13T15:52:36.027Z,9.83
2023-01-13T15:58:30.855Z,12.63
2023-01-13T16:04:23.361Z,11.75
2023-01-13T16:10:26.203Z,10.93
2023-01-13T16:16:24.842Z,12.02
2023-01-13T16:22:18.289Z,11.05
2023-01-13T16:28:23.033Z,12.32
2023-01-13T16:34:15.426Z,12.50
2023-01-13T16:40:21.733Z,13.93
2023-01-13T16:46:21.645Z,15.55
2023-01-13T16:52:14.672Z,18.98
2023-01-13T16:58:20.974Z,16.58
2023-01-13T17:04:20.298Z,15.55
2023-01-13T17:10:23.030Z,16.52
2023-01-13T17:16:26.454Z,16.13
2023-01-13T17:22:23.295Z,20.20
2023-01-13T17:28:15.757Z,21.85
2023-01-13T17:34:11.020Z,13.20
2023-01-13T17:40:05.804Z,13.15
2023-01-13T17:46:00.489Z,13.48
2023-01-13T17:51:55.443Z,13.52
2023-01-13T17:57:47.962Z,13.35
2023-01-13T18:03:41.779Z,16.75
2023-01-13T18:09:34.755Z,17.10
2023-01-13T18:15:27.914Z,18.23
2023-01-13T18:21:42.415Z,14.20
2023-01-13T18:27:38.655Z,17.38
2023-01-13T18:33:30.762Z,17.48
2023-01-13T18:39:23.838Z,17.48
2023-01-13T18:45:29.410Z,20.65
2023-01-13T18:51:21.910Z,21.48
2023-01-13T18:57:16.453Z,21.88
2023-01-13T19:09:11.190Z,18.80
2023-01-13T19:15:04.785Z,18.42
2023-01-13T19:21:01.752Z,18.57
2023-01-13T19:26:55.046Z,18.58
2023-01-13T19:32:47.859Z,18.60
2023-01-13T19:38:40.878Z,15.48
2023-01-13T19:44:52.714Z,16.63
2023-01-13T19:50:45.511Z,17.17
2023-01-13T19:56:39.124Z,15.20
2023-01-13T20:02:32.748Z,15.00
2023-01-13T20:08:27.223Z,13.57
2023-01-13T20:14:21.566Z,13.00
2023-01-13T20:20:16.064Z,11.68
2023-01-13T20:26:09.165Z,11.80
2023-01-13T20:32:02.271Z,7.85
2023-01-13T20:37:55.084Z,6.33
2023-01-13T20:43:50.197Z,6.45
2023-01-13T20:49:44.295Z,5.68
2023-01-13T20:55:40.043Z,6.35
2023-01-13T21:01:32.544Z,6.38
2023-01-13T21:07:25.653Z,6.45
2023-01-13T21:13:37.078Z,5.65
2023-01-13T21:19:30.347Z,6.55
2023-01-13T21:25:23.306Z,5.55
2023-01-13T21:31:17.616Z,5.63
2023-01-13T21:37:13.567Z,5.10
2023-01-13T21:43:31.815Z,5.30
2023-01-13T21:49:24.897Z,5.18
2023-01-13T21:55:20.589Z,3.90
2023-01-13T22:01:13.397Z,5.05
2023-01-13T22:07:06.864Z,5.23
2023-01-13T22:13:21.436Z,5.28
2023-01-13T22:19:14.295Z,5.68
2023-01-13T22:25:09.212Z,6.47
2023-01-13T22:31:02.360Z,7.07
2023-01-13T22:36:55.438Z,6.55
2023-01-13T22:42:48.396Z,4.93
2023-01-13T22:48:41.751Z,3.63
2023-01-13T22:54:34.400Z,4.05
2023-01-13T23:00:27.638Z,3.90
2023-01-13T23:06:22.114Z,3.72
2023-01-13T23:12:14.097Z,3.70
2023-01-13T23:18:06.597Z,3.80
2023-01-13T23:23:59.587Z,3.67
2023-01-13T23:29:54.735Z,3.30
2023-01-13T23:35:59.579Z,3.72
2023-01-13T23:41:52.522Z,3.20
2023-01-13T23:47:46.521Z,3.80
2023-01-13T23:53:41.063Z,4.13
2023-01-13T23:59:33.567Z,3.85
